RJOZ weather

Ozuki Airport
Yamaguchi Prefecture, Japan

Public forecast

Using degrees Celsius for public forecast. Weather courtesy of forecast.io.

Current aviation weather report (METAR) for Ozuki Airport

Report is more than 6 hours old.

Retrieved 2019/10/18 19:12 UTC (2 days ago):

RJOZ 181912Z 31005KT 280V340 9999 -SHRA FEW010 SCT020 BKN030 19/19 Q1013 RMK 1ST010 4CU020 7CU030 A2992

Closest aviation forecast (TAF) to Ozuki Airport

Closest forecast is Kitakyūshū Airport, 12.0 nm (22.2 km) S. Retrieved 2019/10/21 06:30 UTC (0 seconds ago):

TAF TAF RJFR 210507Z 2106/2212 01010KT 9999 FEW020 SCT040